Sunday, September 15, 2019, 12:01 PM EDT
Back to Local

KMHT, Manchester Airport

Location: Manchester, NH, United States Lat: 42.933
Local Time: 12:01 PM EDT (16:01 GMT) Lon: -71.433
Time Zone: US/Eastern Elev: 232 ft

Show me the last for .
Show Decoded

2019-09-15 10:53 METAR KMHT 151453Z VRB06KT 10SM FEW150 23/12 A3009 RMK AO2 SLP201 T02280117
                 58009 $ =
2019-09-15 09:53 METAR KMHT 151353Z VRB04KT 10SM FEW200 21/16 A3011 RMK AO2 SLP208 T02060156 $ =
2019-09-15 08:53 METAR KMHT 151253Z 19004KT 10SM FEW200 18/16 A3011 RMK AO2 SLP209 T01830156 $ =
2019-09-15 07:53 METAR KMHT 151153Z 19004KT 10SM FEW002 FEW200 16/16 A3012 RMK AO2 SLP210 70003
                 T01560156 10178 20144 50006 $ =
2019-09-15 06:53 METAR KMHT 151053Z 16003KT 7SM R35/1800VP6000FT FEW002 15/14 A3012 RMK AO2
                 SLP211 T01500144 $ =
2019-09-15 06:38 METAR KMHT 151038Z 21003KT 4SM R35/1200V4500FT BR FEW002 15/15 A3012 RMK AO2
                 T01500150 $ =
2019-09-15 06:25 METAR KMHT 151025Z 21006KT 1 3/4SM BR FEW002 15/14 A3012 RMK AO2 TWR VIS 10
                 T01500144 $ =
2019-09-15 05:53 METAR KMHT 150953Z VRB04KT 10SM R35/3000VP6000FT SCT001 15/15 A3011 RMK AO2
                 SLP207 T01500150 $ =
2019-09-15 05:40 METAR KMHT 150940Z 16003KT 5SM R35/3500VP6000FT BR SCT001 16/15 A3011 RMK AO2
                 T01560150 $ =
2019-09-15 05:37 METAR KMHT 150937Z 15003KT 5SM R35/3500VP6000FT BR BKN001 15/14 A3011 RMK AO2
                 T01500144 $ =
2019-09-15 04:53 METAR KMHT 150853Z 20004KT 1/2SM R35/5000VP6000FT BR BKN001 16/16 A3010 RMK AO2
                 SFC VIS 3 SLP205 T01560156 55002 =
2019-09-15 04:43 METAR KMHT 150843Z 22003KT 1/2SM R35/P6000FT BR BKN001 16/16 A3010 RMK AO2 SFC
                 VIS 3 T01610156 =
2019-09-15 04:27 METAR KMHT 150827Z 18004KT 1/4SM R35/2000VP6000FT FG VV001 16/16 A3010 RMK AO2
                 TWR VIS 1/2 T01610156 =
2019-09-15 04:22 METAR KMHT 150822Z 18004KT 1/4SM R35/1200V2200FT FG VV002 16/16 A3010 RMK AO2
                 TWR VIS 1/2 T01610161 =
2019-09-15 04:07 METAR KMHT 150807Z 17003KT 1/2SM R35/2000VP6000FT BR BKN002 16/16 A3010 RMK AO2
                 SFC VIS 3 T01610156 =
2019-09-15 04:00 METAR KMHT 150800Z 00000KT 1/2SM R35/1400V3500FT BR BKN001 16/16 A3010 RMK AO2
                 SFC VIS 3 T01610161 =
2019-09-15 03:53 METAR KMHT 150753Z COR 00000KT 3SM R35/1400VP6000FT BR VV001 16/16 A3009 RMK AO2
                 SLP202 T01610161 =
2019-09-15 02:53 METAR KMHT 150653Z 00000KT 1/2SM R35/P6000FT FG VV001 17/17 A3010 RMK AO2 SLP203
                 T01720167 =
2019-09-15 02:46 METAR KMHT 150646Z 00000KT 1/2SM R35/P6000FT FG VV002 17/17 A3010 RMK AO2
                 T01720167 =
2019-09-15 02:08 METAR KMHT 150608Z 18004KT 1/4SM R35/4500VP6000FT FG VV002 18/17 A3010 RMK AO2
                 TWR VIS 1/2 T01780172 =
2019-09-15 01:53 METAR KMHT 150553Z 22003KT 1/2SM R35/4000VP6000FT BR VV002 18/17 A3011 RMK AO2
                 SFC VIS 3/4 SLP207 60000 T01780172 10183 20178 55003 =
2019-09-15 00:53 METAR KMHT 150453Z 19005KT 1/2SM R35/P6000FT BR OVC002 18/18 A3011 RMK AO2 SFC
                 VIS 2 SLP207 T01780178 401890078 =
2019-09-15 00:50 METAR KMHT 150450Z 20004KT 1/2SM R35/P6000FT BR OVC002 18/18 A3011 RMK AO2 SFC
                 VIS 2 =
2019-09-14 23:53 METAR KMHT 150353Z 17004KT 10SM OVC004 18/17 A3011 RMK AO2 SLP208 T01780172 =
2019-09-14 23:12 METAR KMHT 150312Z 00000KT 10SM SCT004 SCT021 BKN050 18/17 A3013 RMK AO2
                 T01780172 =
2019-09-14 22:53 METAR KMHT 150253Z 18009KT 10SM FEW050 BKN250 18/17 A3012 RMK AO2 RAB11E21
                 SLP212 P0000 60000 T01830172 58008 =
2019-09-14 21:53 METAR KMHT 150153Z 20003KT 10SM OVC019 18/17 A3014 RMK AO2 SLP219 T01830172 =
2019-09-14 21:00 METAR KMHT 150100Z 18003KT 10SM BKN020 OVC039 18/17 A3015 RMK AO2 T01830172 =
2019-09-14 20:53 METAR KMHT 150053Z 17003KT 10SM SCT028 OVC050 18/17 A3015 RMK AO2 SLP221
                 T01830172 =
2019-09-14 20:08 METAR KMHT 150008Z 20005KT 10SM SCT028 OVC050 18/17 A3015 RMK AO2 T01830172 =
2019-09-14 19:53 METAR KMHT 142353Z 19005KT 10SM BKN028 OVC048 18/17 A3014 RMK AO2 SLP219 60000
                 T01830172 10189 20172 56007 =
2019-09-14 19:22 METAR KMHT 142322Z 19007KT 10SM BKN028 OVC048 18/17 A3015 RMK AO2 T01830172 =
2019-09-14 18:53 METAR KMHT 142253Z 18009KT 10SM OVC038 19/17 A3015 RMK AO2 SLP221 T01890167 =
2019-09-14 17:53 METAR KMHT 142153Z 19006KT 10SM OVC039 19/17 A3016 RMK AO2 SLP225 T01890172 =
2019-09-14 16:53 METAR KMHT 142053Z 18007KT 10SM OVC035 19/17 A3016 RMK AO2 RAE1955 SLP228 P0000
                 60000 T01890172 57020 =
2019-09-14 15:53 METAR KMHT 141953Z 16008KT 10SM -RA OVC038 18/17 A3018 RMK AO2 RAB43 SLP234
                 P0000 T01830167 =
2019-09-14 14:53 METAR KMHT 141853Z 18005KT 10SM OVC036 18/16 A3021 RMK AO2 SLP242 T01780161 =
2019-09-14 13:53 METAR KMHT 141753Z 17008KT 10SM OVC046 17/16 A3022 RMK AO2 RAE35 SLP248 P0003
                 60003 T01720156 10183 20100 56027 =
2019-09-14 12:53 METAR KMHT 141653Z 17007KT 10SM -RA SCT065 OVC085 17/14 A3025 RMK AO2 RAB35
                 SLP256 P0000 T01670144 =

Support USWX by starting your Amazon purchase here.